createdAt,value
2022-08-22T00:01:30.340Z,14.24
2022-08-22T00:02:53.684Z,16.70
2022-08-22T00:03:11.075Z,14.64
2022-08-22T00:04:17.245Z,14.33
2022-08-22T00:07:12.348Z,14.24
2022-08-22T00:09:52.500Z,14.17
2022-08-22T00:12:29.523Z,14.12
2022-08-22T00:15:13.249Z,14.03
2022-08-22T00:18:10.469Z,13.98
2022-08-22T00:21:02.896Z,13.92
2022-08-22T00:23:43.606Z,13.89
2022-08-22T00:26:33.798Z,13.82
2022-08-22T00:29:03.942Z,13.80
2022-08-22T00:31:43.359Z,13.77
2022-08-22T00:34:46.301Z,13.70
2022-08-22T00:37:24.258Z,13.67
2022-08-22T00:39:54.969Z,13.67
2022-08-22T00:43:03.427Z,13.65
2022-08-22T00:46:02.121Z,13.63
2022-08-22T00:48:54.926Z,13.60
2022-08-22T00:51:40.552Z,13.57
2022-08-22T00:54:34.968Z,13.52
2022-08-22T00:57:10.422Z,13.49
2022-08-22T00:59:50.330Z,13.44
2022-08-22T01:02:54.483Z,13.44
2022-08-22T01:05:38.584Z,13.40
2022-08-22T01:08:36.295Z,13.38
2022-08-22T01:11:30.096Z,13.35
2022-08-22T01:14:35.137Z,13.33
2022-08-22T01:17:32.448Z,13.28
2022-08-22T01:20:32.715Z,13.30
2022-08-22T01:23:30.152Z,13.30
2022-08-22T01:26:30.781Z,13.28
2022-08-22T01:29:39.798Z,13.25
2022-08-22T01:33:24.308Z,13.28
2022-08-22T01:36:17.644Z,13.36
2022-08-22T01:39:13.515Z,13.40
2022-08-22T01:42:21.214Z,13.45
2022-08-22T01:45:10.035Z,13.45
2022-08-22T01:47:42.623Z,13.43
2022-08-22T01:50:25.605Z,13.44
2022-08-22T01:53:04.785Z,13.44
2022-08-22T01:55:56.144Z,13.48
2022-08-22T01:58:26.838Z,13.49
2022-08-22T02:01:08.280Z,13.51
2022-08-22T02:04:18.133Z,13.50
2022-08-22T02:07:00.431Z,13.52
2022-08-22T02:09:38.125Z,13.53
2022-08-22T02:12:26.570Z,13.54
2022-08-22T02:15:14.859Z,13.46
2022-08-22T02:18:12.301Z,13.40
2022-08-22T02:20:47.743Z,13.39
2022-08-22T02:23:43.274Z,13.38
2022-08-22T02:26:16.864Z,13.38
2022-08-22T02:28:57.447Z,13.34
2022-08-22T02:31:46.216Z,13.30
2022-08-22T02:34:37.101Z,13.24
2022-08-22T02:37:30.813Z,13.21
2022-08-22T02:40:17.929Z,13.15
2022-08-22T02:42:55.112Z,13.15
2022-08-22T02:45:46.115Z,13.14
2022-08-22T02:48:50.736Z,13.12
2022-08-22T02:51:33.166Z,13.14
2022-08-22T02:54:26.170Z,13.13
2022-08-22T02:57:09.572Z,13.07
2022-08-22T03:00:30.901Z,13.02
2022-08-22T03:03:14.154Z,13.01
2022-08-22T03:05:40.472Z,12.98
2022-08-22T03:08:33.860Z,12.99
2022-08-22T03:11:05.183Z,12.97
2022-08-22T03:13:46.422Z,12.94
2022-08-22T03:16:26.056Z,12.88
2022-08-22T03:19:07.463Z,12.81
2022-08-22T03:21:57.989Z,12.78
2022-08-22T03:24:30.145Z,12.76
2022-08-22T03:27:10.404Z,12.70
2022-08-22T03:29:49.954Z,12.66
2022-08-22T03:32:41.008Z,12.64
2022-08-22T03:35:22.844Z,12.63
2022-08-22T03:37:56.664Z,12.65
2022-08-22T03:40:32.462Z,12.69
2022-08-22T03:43:14.196Z,12.69
2022-08-22T03:45:52.788Z,12.74
2022-08-22T03:48:45.557Z,12.76
2022-08-22T03:51:30.278Z,12.70
2022-08-22T03:54:24.558Z,12.65
2022-08-22T03:57:40.472Z,12.62
2022-08-22T04:00:18.728Z,12.67
2022-08-22T04:02:53.367Z,12.78
2022-08-22T04:05:48.481Z,12.96
2022-08-22T04:09:01.751Z,13.16
2022-08-22T04:12:01.712Z,13.44
2022-08-22T04:15:09.568Z,13.53
2022-08-22T04:17:38.885Z,13.64
2022-08-22T04:20:30.437Z,13.68
2022-08-22T04:23:41.738Z,13.62
2022-08-22T04:26:51.377Z,13.65
2022-08-22T04:29:40.743Z,13.72
2022-08-22T04:32:28.972Z,13.73
2022-08-22T04:35:34.296Z,13.75
2022-08-22T04:38:18.406Z,13.77
2022-08-22T04:40:55.737Z,13.74
2022-08-22T04:43:25.825Z,13.61
2022-08-22T04:46:03.112Z,13.47
2022-08-22T04:48:35.364Z,13.37
2022-08-22T04:51:26.455Z,13.28
2022-08-22T04:54:05.986Z,13.19
2022-08-22T04:57:02.833Z,13.15
2022-08-22T04:59:30.795Z,13.15
2022-08-22T05:02:06.323Z,13.17
2022-08-22T05:04:39.157Z,13.16
2022-08-22T05:07:11.974Z,13.16
2022-08-22T05:09:45.146Z,13.22
2022-08-22T05:12:18.877Z,13.27
2022-08-22T05:14:59.941Z,13.27
2022-08-22T05:17:30.544Z,13.33
2022-08-22T05:20:03.153Z,13.37
2022-08-22T05:22:47.747Z,13.39
2022-08-22T05:25:42.021Z,13.38
2022-08-22T05:28:17.579Z,13.51
2022-08-22T05:30:47.430Z,13.61
2022-08-22T05:33:21.900Z,13.66
2022-08-22T05:35:58.099Z,13.67
2022-08-22T05:38:30.530Z,13.74
2022-08-22T05:41:12.417Z,13.74
2022-08-22T05:43:43.103Z,13.81
2022-08-22T05:46:20.306Z,13.84
2022-08-22T05:48:58.086Z,14.01
2022-08-22T05:51:33.070Z,14.24
2022-08-22T05:54:09.344Z,14.51
2022-08-22T05:56:42.204Z,14.65
2022-08-22T05:59:24.028Z,14.58
2022-08-22T06:02:02.932Z,14.55
2022-08-22T06:04:43.606Z,14.62
2022-08-22T06:07:20.195Z,14.79
2022-08-22T06:09:46.671Z,14.97
2022-08-22T06:12:31.884Z,15.24
2022-08-22T06:15:12.090Z,15.55
2022-08-22T06:17:57.825Z,15.80
2022-08-22T06:20:32.149Z,16.10
2022-08-22T06:23:01.885Z,16.40
2022-08-22T06:25:33.377Z,16.71
2022-08-22T06:28:07.153Z,16.90
2022-08-22T06:30:35.493Z,17.20
2022-08-22T06:33:08.294Z,17.65
2022-08-22T06:36:03.244Z,17.75
2022-08-22T06:38:34.150Z,17.82
2022-08-22T06:41:06.153Z,18.03
2022-08-22T06:43:38.981Z,18.24
2022-08-22T06:46:07.296Z,18.56
2022-08-22T06:48:36.129Z,18.82
2022-08-22T06:51:06.371Z,19.17
2022-08-22T06:53:40.336Z,19.25
2022-08-22T06:56:21.601Z,19.12
2022-08-22T06:58:51.301Z,19.15
2022-08-22T07:01:43.390Z,19.09
2022-08-22T07:04:10.834Z,19.17
2022-08-22T07:06:50.054Z,19.53
2022-08-22T07:09:24.201Z,20.09
2022-08-22T07:11:52.792Z,20.23
2022-08-22T07:14:29.273Z,20.36
2022-08-22T07:16:56.458Z,20.49
2022-08-22T07:19:36.850Z,20.30
2022-08-22T07:22:16.255Z,20.22
2022-08-22T07:25:04.525Z,20.15
2022-08-22T07:27:48.776Z,20.25
2022-08-22T07:30:17.858Z,20.63
2022-08-22T07:33:25.880Z,21.00
2022-08-22T07:35:55.678Z,20.89
2022-08-22T07:38:27.932Z,21.21
2022-08-22T07:41:14.668Z,21.05
2022-08-22T07:43:56.750Z,21.27
2022-08-22T07:46:28.949Z,21.45
2022-08-22T07:49:09.375Z,21.17
2022-08-22T07:51:50.694Z,20.88
2022-08-22T07:54:26.465Z,21.05
2022-08-22T07:57:01.209Z,21.14
2022-08-22T07:59:30.490Z,21.33
2022-08-22T08:02:00.268Z,21.11
2022-08-22T08:04:36.850Z,21.12
2022-08-22T08:07:08.474Z,21.49
2022-08-22T08:09:40.453Z,21.79
2022-08-22T08:12:10.605Z,21.74
2022-08-22T08:14:40.509Z,21.79
2022-08-22T08:17:12.897Z,22.21
2022-08-22T08:19:42.484Z,22.94
2022-08-22T08:22:16.436Z,23.93
2022-08-22T08:24:44.889Z,24.93
2022-08-22T08:27:34.621Z,24.27
2022-08-22T08:30:15.427Z,23.72
2022-08-22T08:32:45.410Z,23.82
2022-08-22T08:35:20.407Z,23.50
2022-08-22T08:38:13.464Z,23.39
2022-08-22T08:40:42.867Z,21.87
2022-08-22T08:43:47.046Z,21.58
2022-08-22T08:46:19.769Z,22.41
2022-08-22T08:48:55.365Z,22.15
2022-08-22T08:51:23.414Z,21.92
2022-08-22T08:54:12.246Z,21.89
2022-08-22T08:57:03.075Z,22.18
2022-08-22T09:00:00.742Z,22.39
2022-08-22T09:02:56.936Z,21.66
2022-08-22T09:05:48.346Z,22.01
2022-08-22T09:08:45.261Z,21.88
2022-08-22T09:11:14.790Z,22.32
2022-08-22T09:13:48.953Z,22.30
2022-08-22T09:16:18.747Z,22.20
2022-08-22T09:19:30.625Z,22.66
2022-08-22T09:22:14.298Z,22.79
2022-08-22T09:25:14.434Z,22.71
2022-08-22T09:28:02.825Z,22.71
2022-08-22T09:30:58.391Z,22.75
2022-08-22T09:33:35.296Z,22.75
2022-08-22T09:36:18.655Z,23.07
2022-08-22T09:39:03.136Z,22.94
2022-08-22T09:41:52.869Z,23.01
2022-08-22T09:44:49.868Z,22.99
2022-08-22T09:47:25.668Z,23.38
2022-08-22T09:50:13.648Z,23.45
2022-08-22T09:52:50.043Z,23.18
2022-08-22T09:55:44.082Z,23.27
2022-08-22T09:58:42.137Z,23.39
2022-08-22T10:01:32.933Z,23.59
2022-08-22T10:04:25.927Z,23.62
2022-08-22T10:07:17.565Z,23.19
2022-08-22T10:09:54.949Z,23.38
2022-08-22T10:12:36.555Z,23.56
2022-08-22T10:15:24.925Z,23.72
2022-08-22T10:18:06.265Z,24.07
2022-08-22T10:20:53.743Z,23.99
2022-08-22T10:23:29.554Z,24.18
2022-08-22T10:26:30.153Z,23.91
2022-08-22T10:29:25.821Z,24.14
2022-08-22T10:32:14.442Z,24.34
2022-08-22T10:34:47.277Z,24.13
2022-08-22T10:37:48.656Z,24.09
2022-08-22T10:40:40.263Z,24.57
2022-08-22T10:43:20.224Z,24.56
2022-08-22T10:46:03.589Z,24.28
2022-08-22T10:48:49.337Z,23.84
2022-08-22T10:51:23.840Z,24.32
2022-08-22T10:54:20.988Z,24.47
2022-08-22T10:57:03.528Z,24.63
2022-08-22T10:59:48.265Z,24.83
2022-08-22T11:02:42.186Z,24.53
2022-08-22T11:05:21.579Z,24.39
2022-08-22T11:07:58.939Z,24.67
2022-08-22T11:10:31.378Z,24.78
2022-08-22T11:13:43.315Z,24.37
2022-08-22T11:16:55.300Z,24.32
2022-08-22T11:19:47.082Z,24.84
2022-08-22T11:22:25.337Z,23.77
2022-08-22T11:25:07.292Z,23.65
2022-08-22T11:28:11.828Z,23.76
2022-08-22T11:31:36.684Z,24.43
2022-08-22T11:34:22.735Z,23.49
2022-08-22T11:36:56.451Z,24.42
2022-08-22T11:39:45.136Z,25.14
2022-08-22T11:42:22.983Z,25.60
2022-08-22T11:44:55.670Z,25.25
2022-08-22T11:47:27.199Z,25.82
2022-08-22T11:50:13.636Z,26.08
2022-08-22T11:52:54.764Z,25.27
2022-08-22T11:55:34.547Z,25.04
2022-08-22T11:58:10.226Z,26.15
2022-08-22T12:00:58.681Z,26.55
2022-08-22T12:04:01.126Z,27.02
2022-08-22T12:06:45.230Z,25.98
2022-08-22T12:09:20.961Z,26.84
2022-08-22T12:12:26.408Z,27.09
2022-08-22T12:15:19.022Z,27.26
2022-08-22T12:18:21.208Z,26.69
2022-08-22T12:21:21.602Z,26.61
2022-08-22T12:24:19.266Z,27.11
2022-08-22T12:26:59.271Z,27.72
2022-08-22T12:30:04.720Z,28.05
2022-08-22T12:33:02.625Z,27.63
2022-08-22T12:35:39.293Z,27.87
2022-08-22T12:38:28.580Z,27.90
2022-08-22T12:41:12.032Z,28.48
2022-08-22T12:43:53.496Z,27.63
2022-08-22T12:46:47.356Z,26.95
2022-08-22T12:49:29.250Z,26.61
2022-08-22T12:52:18.276Z,26.39
2022-08-22T12:55:05.944Z,25.37
2022-08-22T12:57:42.341Z,25.53
2022-08-22T13:00:26.889Z,25.27
2022-08-22T13:02:54.936Z,25.99
2022-08-22T13:05:27.616Z,27.70
2022-08-22T13:08:04.348Z,28.31
2022-08-22T13:10:52.292Z,28.48
2022-08-22T13:13:36.465Z,28.51
2022-08-22T13:16:08.652Z,28.76
2022-08-22T13:19:00.321Z,29.70
2022-08-22T13:21:39.570Z,29.86
2022-08-22T13:24:22.703Z,29.43
2022-08-22T13:27:09.036Z,29.41
2022-08-22T13:29:55.076Z,29.50
2022-08-22T13:32:31.651Z,29.57
2022-08-22T13:34:59.751Z,29.73
2022-08-22T13:37:35.768Z,31.40
2022-08-22T13:40:07.430Z,31.41
2022-08-22T13:42:47.766Z,31.21
2022-08-22T13:45:25.699Z,30.07
2022-08-22T13:47:59.343Z,30.28
2022-08-22T13:50:53.127Z,30.97
2022-08-22T13:53:39.532Z,31.74
2022-08-22T13:56:15.812Z,32.84
2022-08-22T13:58:46.264Z,32.25
2022-08-22T14:01:33.060Z,31.94
2022-08-22T14:04:28.597Z,32.11
2022-08-22T14:07:24.138Z,32.63
2022-08-22T14:09:54.534Z,33.34
2022-08-22T14:12:49.817Z,34.16
2022-08-22T14:15:24.905Z,34.20
2022-08-22T14:17:56.822Z,33.47
2022-08-22T14:20:33.839Z,33.42
2022-08-22T14:23:27.371Z,33.05
2022-08-22T14:25:54.555Z,33.72
2022-08-22T14:28:29.628Z,34.24
2022-08-22T14:31:07.185Z,35.28
2022-08-22T14:33:39.894Z,34.25
2022-08-22T14:36:35.600Z,33.53
2022-08-22T14:39:16.462Z,34.43
2022-08-22T14:41:56.377Z,34.49
2022-08-22T14:44:59.036Z,34.26
2022-08-22T14:47:55.266Z,34.34
2022-08-22T14:50:36.508Z,34.17
2022-08-22T14:53:09.654Z,33.94
2022-08-22T14:55:39.365Z,33.81
2022-08-22T14:58:18.700Z,32.23
2022-08-22T15:00:56.499Z,28.82
2022-08-22T15:03:34.390Z,30.83
2022-08-22T15:06:05.941Z,32.15
2022-08-22T15:08:42.363Z,33.36
2022-08-22T15:11:21.851Z,34.21
2022-08-22T15:14:06.618Z,34.31
2022-08-22T15:16:40.833Z,30.88
2022-08-22T15:19:32.939Z,28.83
2022-08-22T15:22:14.841Z,27.11
2022-08-22T15:24:44.830Z,29.61
2022-08-22T15:27:11.862Z,32.64
2022-08-22T15:29:50.618Z,32.93
2022-08-22T15:32:23.689Z,32.54
2022-08-22T15:35:02.521Z,32.58
2022-08-22T15:37:32.751Z,31.63
2022-08-22T15:40:27.161Z,32.49
2022-08-22T15:42:57.109Z,32.13
2022-08-22T15:45:34.184Z,33.75
2022-08-22T15:48:06.907Z,33.20
2022-08-22T15:50:36.053Z,33.00
2022-08-22T15:53:10.160Z,32.73
2022-08-22T15:55:37.848Z,32.83
2022-08-22T15:58:12.922Z,33.34
2022-08-22T16:00:45.482Z,33.20
2022-08-22T16:03:26.436Z,32.97
2022-08-22T16:05:57.916Z,33.81
2022-08-22T16:08:27.134Z,34.38
2022-08-22T16:11:02.041Z,33.99
2022-08-22T16:13:31.703Z,33.58
2022-08-22T16:16:03.959Z,29.01
2022-08-22T16:18:33.669Z,26.78
2022-08-22T16:21:03.984Z,25.96
2022-08-22T16:23:58.641Z,29.13
2022-08-22T16:26:31.091Z,30.99
2022-08-22T16:29:04.801Z,32.12
2022-08-22T16:31:36.015Z,33.01
2022-08-22T16:34:17.780Z,33.19
2022-08-22T16:37:10.832Z,33.41
2022-08-22T16:39:49.431Z,32.97
2022-08-22T16:42:15.792Z,33.86
2022-08-22T16:44:46.584Z,32.52
2022-08-22T16:47:22.881Z,31.67
2022-08-22T16:49:49.271Z,32.00
2022-08-22T16:52:22.181Z,32.65
2022-08-22T16:54:55.634Z,33.10
2022-08-22T16:57:23.829Z,32.78
2022-08-22T17:00:14.975Z,32.29
2022-08-22T17:02:50.370Z,31.81
2022-08-22T17:05:30.042Z,31.20
2022-08-22T17:08:03.345Z,31.94
2022-08-22T17:10:54.669Z,31.26
2022-08-22T17:13:46.754Z,31.28
2022-08-22T17:16:27.889Z,31.28
2022-08-22T17:19:24.522Z,30.99
2022-08-22T17:21:56.490Z,30.95
2022-08-22T17:24:45.189Z,30.51
2022-08-22T17:27:17.704Z,30.25
2022-08-22T17:30:22.001Z,29.47
2022-08-22T17:32:59.748Z,28.70
2022-08-22T17:36:26.818Z,29.57
2022-08-22T17:39:20.529Z,27.46
2022-08-22T17:42:20.824Z,24.88
2022-08-22T17:45:06.278Z,23.71
2022-08-22T17:48:04.932Z,23.03
2022-08-22T17:50:49.013Z,22.76
2022-08-22T17:53:38.931Z,22.41
2022-08-22T17:56:47.207Z,22.24
2022-08-22T17:59:28.976Z,22.13
2022-08-22T18:02:01.720Z,21.95
2022-08-22T18:04:39.135Z,21.84
2022-08-22T18:07:05.495Z,21.77
2022-08-22T18:09:39.824Z,21.71
2022-08-22T18:12:24.222Z,21.60
2022-08-22T18:15:06.652Z,21.46
2022-08-22T18:17:42.385Z,21.35
2022-08-22T18:20:21.386Z,21.18
2022-08-22T18:23:03.461Z,21.04
2022-08-22T18:25:45.671Z,20.85
2022-08-22T18:28:25.389Z,20.70
2022-08-22T18:30:59.520Z,20.57
2022-08-22T18:33:48.731Z,20.47
2022-08-22T18:36:17.469Z,20.32
2022-08-22T18:38:54.350Z,20.19
2022-08-22T18:41:45.393Z,20.09
2022-08-22T18:44:19.636Z,19.99
2022-08-22T18:47:18.741Z,19.93
2022-08-22T18:49:48.733Z,19.85
2022-08-22T18:52:19.836Z,19.78
2022-08-22T18:55:12.034Z,19.71
2022-08-22T18:57:42.689Z,19.59
2022-08-22T19:00:19.039Z,19.49
2022-08-22T19:03:03.561Z,19.43
2022-08-22T19:05:39.136Z,19.33
2022-08-22T19:08:56.933Z,19.25
2022-08-22T19:11:46.755Z,19.15
2022-08-22T19:14:50.600Z,19.05
2022-08-22T19:18:10.320Z,18.97
2022-08-22T19:20:57.829Z,18.91
2022-08-22T19:23:36.911Z,18.85
2022-08-22T19:26:23.219Z,18.80
2022-08-22T19:29:11.368Z,18.80
2022-08-22T19:31:41.696Z,18.76
2022-08-22T19:34:26.933Z,18.72
2022-08-22T19:37:11.551Z,18.73
2022-08-22T19:40:09.893Z,18.73
2022-08-22T19:42:38.931Z,18.71
2022-08-22T19:45:29.206Z,18.68
2022-08-22T19:48:10.555Z,18.71
2022-08-22T19:50:40.033Z,18.69
2022-08-22T19:53:32.448Z,18.63
2022-08-22T19:56:24.920Z,18.57
2022-08-22T19:59:15.212Z,18.53
2022-08-22T20:01:55.891Z,18.45
2022-08-22T20:04:35.872Z,18.45
2022-08-22T20:07:14.736Z,18.46
2022-08-22T20:09:58.165Z,18.50
2022-08-22T20:13:02.309Z,18.54
2022-08-22T20:15:31.858Z,18.54
2022-08-22T20:18:47.197Z,18.50
2022-08-22T20:21:00.517Z,18.50
2022-08-22T20:23:30.584Z,18.52
2022-08-22T20:25:58.509Z,18.51
2022-08-22T20:28:45.024Z,18.55
2022-08-22T20:31:20.676Z,18.55
2022-08-22T20:33:55.151Z,18.61
2022-08-22T20:36:28.845Z,18.59
2022-08-22T20:39:01.743Z,18.58
2022-08-22T20:41:40.477Z,18.52
2022-08-22T20:44:12.933Z,18.58
2022-08-22T20:46:55.223Z,18.58
2022-08-22T20:49:34.265Z,18.56
2022-08-22T20:52:03.999Z,18.52
2022-08-22T20:54:39.529Z,18.52
2022-08-22T20:57:16.957Z,18.43
2022-08-22T20:59:56.561Z,18.34
2022-08-22T21:02:55.199Z,18.29
2022-08-22T21:05:33.045Z,18.24
2022-08-22T21:08:18.464Z,18.18
2022-08-22T21:11:15.519Z,18.18
2022-08-22T21:13:41.904Z,18.15
2022-08-22T21:16:31.377Z,18.15
2022-08-22T21:19:01.479Z,18.14
2022-08-22T21:21:30.940Z,18.16
2022-08-22T21:24:00.728Z,18.11
2022-08-22T21:26:31.672Z,18.08
2022-08-22T21:29:07.183Z,18.01
2022-08-22T21:31:59.113Z,18.00
2022-08-22T21:34:36.499Z,18.05
2022-08-22T21:37:22.888Z,18.04
2022-08-22T21:40:04.244Z,18.11
2022-08-22T21:42:43.469Z,18.14
2022-08-22T21:45:39.737Z,18.22
2022-08-22T21:48:33.060Z,18.25
2022-08-22T21:51:29.213Z,18.23
2022-08-22T21:54:21.031Z,18.22
2022-08-22T21:56:49.497Z,18.16
2022-08-22T21:59:50.867Z,18.21
2022-08-22T22:02:29.854Z,18.21
2022-08-22T22:04:58.548Z,18.25
2022-08-22T22:07:26.054Z,18.24
2022-08-22T22:09:54.421Z,18.26
2022-08-22T22:12:21.814Z,18.24
2022-08-22T22:14:49.367Z,18.26
2022-08-22T22:17:18.101Z,18.22
2022-08-22T22:19:45.324Z,18.22
2022-08-22T22:22:11.840Z,18.17
2022-08-22T22:24:38.321Z,18.16
2022-08-22T22:27:05.737Z,18.06
2022-08-22T22:29:33.581Z,18.01
2022-08-22T22:32:00.083Z,18.03
2022-08-22T22:34:26.561Z,18.05
2022-08-22T22:36:53.975Z,18.06
2022-08-22T22:39:20.417Z,18.09
2022-08-22T22:41:46.893Z,18.14
2022-08-22T22:44:13.396Z,18.20
2022-08-22T22:46:39.785Z,18.25
2022-08-22T22:49:06.205Z,18.31
2022-08-22T22:51:32.804Z,18.32
2022-08-22T22:53:59.204Z,18.36
2022-08-22T22:56:26.245Z,18.36
2022-08-22T22:58:57.436Z,18.40
2022-08-22T23:01:27.841Z,18.50
2022-08-22T23:04:05.595Z,18.52
2022-08-22T23:06:33.003Z,18.55
2022-08-22T23:08:59.523Z,18.53
2022-08-22T23:11:28.981Z,18.49
2022-08-22T23:13:56.319Z,18.45
2022-08-22T23:16:27.897Z,18.41
2022-08-22T23:18:55.196Z,18.37
2022-08-22T23:21:26.382Z,18.31
2022-08-22T23:23:56.372Z,18.31
2022-08-22T23:26:23.571Z,18.31
2022-08-22T23:28:50.081Z,18.28
2022-08-22T23:31:29.241Z,18.26
2022-08-22T23:33:56.271Z,18.24
2022-08-22T23:36:23.906Z,18.23
2022-08-22T23:38:51.961Z,18.23
2022-08-22T23:41:21.532Z,18.21
2022-08-22T23:43:51.243Z,18.18
2022-08-22T23:46:19.822Z,18.15
2022-08-22T23:48:46.609Z,18.09
2022-08-22T23:51:15.081Z,18.01
2022-08-22T23:53:43.860Z,17.96
2022-08-22T23:56:35.280Z,17.91
2022-08-22T23:59:05.732Z,17.88
